HAZ2921 ZSHC-ZSPD
Flight info
| Callsign | HAZ2921 |
|---|---|
| Flight time | 0h 31m |
| Altitude | 6900 |
| Route | DSH W505 SUPAR B221 AND G204 DADAT |
| Aircraft | A320/M-SDE3FGHIRWY/LB1 |
Departure
| Time | 2026-05-08 15:14 |
|---|---|
| Airport | Hangzhou Xiaoshan International Airport (ZSHC) |
Arrival
| Time | 2026-05-08 15:45 |
|---|---|
| Airport | Shanghai Pudong International Airport (ZSPD) |
| Time | Latitude | Longitude | Altitude | Speed | Heading |
|---|---|---|---|---|---|
| 2026-05-08 14:52 | 30.23934 | 120.42533 | 29 ft | 0 kts | 234° |
| 2026-05-08 15:04 | 30.23937 | 120.42539 | 29 ft | 2 kts | 234° |
| 2026-05-08 15:04 | 30.23945 | 120.42552 | 29 ft | 2 kts | 234° |
| 2026-05-08 15:04 | 30.23954 | 120.42566 | 29 ft | 2 kts | 234° |
| 2026-05-08 15:05 | 30.23961 | 120.42580 | 29 ft | 2 kts | 267° |
| 2026-05-08 15:05 | 30.23957 | 120.42596 | 29 ft | 2 kts | 318° |
| 2026-05-08 15:05 | 30.23951 | 120.42600 | 29 ft | 1 kts | 340° |
| 2026-05-08 15:05 | 30.23947 | 120.42602 | 29 ft | 0 kts | 333° |
| 2026-05-08 15:08 | 30.23948 | 120.42602 | 29 ft | 1 kts | 333° |
| 2026-05-08 15:08 | 30.23990 | 120.42574 | 29 ft | 10 kts | 326° |
| 2026-05-08 15:08 | 30.24136 | 120.42499 | 29 ft | 17 kts | 334° |
| 2026-05-08 15:09 | 30.24263 | 120.42442 | 29 ft | 18 kts | 334° |
| 2026-05-08 15:09 | 30.24289 | 120.42318 | 29 ft | 23 kts | 240° |
| 2026-05-08 15:09 | 30.24221 | 120.42172 | 29 ft | 20 kts | 243° |
| 2026-05-08 15:09 | 30.24158 | 120.42028 | 29 ft | 19 kts | 243° |
| 2026-05-08 15:10 | 30.24113 | 120.41929 | 29 ft | 13 kts | 243° |
| 2026-05-08 15:10 | 30.24069 | 120.41829 | 29 ft | 14 kts | 243° |
| 2026-05-08 15:10 | 30.24022 | 120.41723 | 29 ft | 14 kts | 242° |
| 2026-05-08 15:10 | 30.23974 | 120.41615 | 29 ft | 15 kts | 242° |
| 2026-05-08 15:11 | 30.23925 | 120.41500 | 29 ft | 15 kts | 244° |
| 2026-05-08 15:11 | 30.23873 | 120.41385 | 29 ft | 16 kts | 242° |
| 2026-05-08 15:11 | 30.23821 | 120.41267 | 29 ft | 16 kts | 243° |
| 2026-05-08 15:11 | 30.23774 | 120.41155 | 29 ft | 10 kts | 252° |
| 2026-05-08 15:12 | 30.23786 | 120.41099 | 29 ft | 3 kts | 319° |
| 2026-05-08 15:12 | 30.23812 | 120.41080 | 29 ft | 5 kts | 333° |
| 2026-05-08 15:12 | 30.23853 | 120.41057 | 29 ft | 7 kts | 333° |
| 2026-05-08 15:12 | 30.23906 | 120.41052 | 29 ft | 8 kts | 24° |
| 2026-05-08 15:13 | 30.23942 | 120.41109 | 29 ft | 9 kts | 63° |
| 2026-05-08 15:13 | 30.24042 | 120.41339 | 29 ft | 68 kts | 64° |
| 2026-05-08 15:13 | 30.24363 | 120.42075 | 29 ft | 133 kts | 61° |
| 2026-05-08 15:13 | 30.24860 | 120.43160 | 327 ft | 158 kts | 63° |
| 2026-05-08 15:14 | 30.25377 | 120.44222 | 1047 ft | 153 kts | 62° |
| 2026-05-08 15:14 | 30.25868 | 120.45293 | 1738 ft | 154 kts | 66° |
| 2026-05-08 15:14 | 30.26353 | 120.46432 | 2283 ft | 166 kts | 66° |
| 2026-05-08 15:14 | 30.26887 | 120.47691 | 2787 ft | 183 kts | 66° |
| 2026-05-08 15:15 | 30.27470 | 120.49042 | 3310 ft | 198 kts | 65° |
| 2026-05-08 15:15 | 30.28122 | 120.50533 | 3769 ft | 220 kts | 65° |
| 2026-05-08 15:15 | 30.28840 | 120.52182 | 4267 ft | 240 kts | 67° |
| 2026-05-08 15:15 | 30.29178 | 120.54108 | 4757 ft | 258 kts | 97° |
| 2026-05-08 15:16 | 30.28521 | 120.56130 | 5279 ft | 279 kts | 118° |
| 2026-05-08 15:16 | 30.27459 | 120.58070 | 5800 ft | 299 kts | 121° |
| 2026-05-08 15:16 | 30.26301 | 120.60153 | 6306 ft | 303 kts | 120° |
| 2026-05-08 15:16 | 30.25262 | 120.62105 | 6712 ft | 272 kts | 119° |
| 2026-05-08 15:17 | 30.24311 | 120.63959 | 6871 ft | 268 kts | 118° |
| 2026-05-08 15:17 | 30.23367 | 120.65852 | 6887 ft | 268 kts | 118° |
| 2026-05-08 15:17 | 30.22462 | 120.67712 | 6895 ft | 269 kts | 118° |
| 2026-05-08 15:17 | 30.21552 | 120.69599 | 6886 ft | 269 kts | 118° |
| 2026-05-08 15:18 | 30.20632 | 120.71515 | 6900 ft | 269 kts | 117° |
| 2026-05-08 15:18 | 30.19727 | 120.73402 | 6898 ft | 270 kts | 117° |
| 2026-05-08 15:18 | 30.18819 | 120.75297 | 6892 ft | 269 kts | 117° |
| 2026-05-08 15:18 | 30.17909 | 120.77193 | 6892 ft | 269 kts | 118° |
| 2026-05-08 15:19 | 30.17011 | 120.79065 | 6894 ft | 268 kts | 118° |
| 2026-05-08 15:19 | 30.16105 | 120.80951 | 6888 ft | 268 kts | 117° |
| 2026-05-08 15:19 | 30.15198 | 120.82838 | 6883 ft | 267 kts | 117° |
| 2026-05-08 15:19 | 30.14303 | 120.84702 | 6881 ft | 268 kts | 118° |
| 2026-05-08 15:20 | 30.13396 | 120.86590 | 6880 ft | 268 kts | 118° |
| 2026-05-08 15:20 | 30.12488 | 120.88474 | 6880 ft | 268 kts | 117° |
| 2026-05-08 15:20 | 30.11588 | 120.90344 | 6880 ft | 268 kts | 117° |
| 2026-05-08 15:20 | 30.10683 | 120.92226 | 6879 ft | 270 kts | 117° |
| 2026-05-08 15:21 | 30.09804 | 120.94144 | 6873 ft | 269 kts | 110° |
| 2026-05-08 15:21 | 30.09558 | 120.96252 | 6865 ft | 265 kts | 81° |
| 2026-05-08 15:21 | 30.10195 | 120.98232 | 6871 ft | 266 kts | 57° |
| 2026-05-08 15:21 | 30.11296 | 120.99937 | 6880 ft | 268 kts | 53° |
| 2026-05-08 15:22 | 30.12429 | 121.01650 | 6879 ft | 268 kts | 54° |
| 2026-05-08 15:22 | 30.13561 | 121.03378 | 6879 ft | 269 kts | 54° |
| 2026-05-08 15:22 | 30.14687 | 121.05109 | 6882 ft | 268 kts | 54° |
| 2026-05-08 15:22 | 30.15796 | 121.06821 | 6884 ft | 267 kts | 54° |
| 2026-05-08 15:23 | 30.16908 | 121.08547 | 6883 ft | 268 kts | 54° |
| 2026-05-08 15:23 | 30.18023 | 121.10281 | 6879 ft | 267 kts | 54° |
| 2026-05-08 15:23 | 30.19134 | 121.12010 | 6879 ft | 268 kts | 54° |
| 2026-05-08 15:23 | 30.20232 | 121.13721 | 6881 ft | 268 kts | 54° |
| 2026-05-08 15:24 | 30.21351 | 121.15462 | 6883 ft | 268 kts | 54° |
| 2026-05-08 15:24 | 30.22456 | 121.17184 | 6879 ft | 267 kts | 54° |
| 2026-05-08 15:24 | 30.23574 | 121.18930 | 6874 ft | 268 kts | 54° |
| 2026-05-08 15:24 | 30.24680 | 121.20655 | 6877 ft | 268 kts | 54° |
| 2026-05-08 15:25 | 30.25769 | 121.22385 | 6882 ft | 268 kts | 56° |
| 2026-05-08 15:25 | 30.26809 | 121.24193 | 6882 ft | 267 kts | 57° |
| 2026-05-08 15:25 | 30.27818 | 121.25977 | 6881 ft | 267 kts | 57° |
| 2026-05-08 15:25 | 30.28832 | 121.27770 | 6880 ft | 266 kts | 57° |
| 2026-05-08 15:26 | 30.29849 | 121.29574 | 6878 ft | 266 kts | 57° |
| 2026-05-08 15:26 | 30.30866 | 121.31376 | 6878 ft | 266 kts | 57° |
| 2026-05-08 15:26 | 30.31875 | 121.33164 | 6879 ft | 267 kts | 57° |
| 2026-05-08 15:26 | 30.32881 | 121.34948 | 6879 ft | 267 kts | 57° |
| 2026-05-08 15:27 | 30.33906 | 121.36765 | 6879 ft | 267 kts | 57° |
| 2026-05-08 15:27 | 30.34911 | 121.38547 | 6877 ft | 267 kts | 57° |
| 2026-05-08 15:27 | 30.35937 | 121.40366 | 6881 ft | 267 kts | 57° |
| 2026-05-08 15:27 | 30.36948 | 121.42162 | 6883 ft | 267 kts | 57° |
| 2026-05-08 15:28 | 30.37962 | 121.43961 | 6879 ft | 267 kts | 57° |
| 2026-05-08 15:28 | 30.38978 | 121.45765 | 6876 ft | 266 kts | 57° |
| 2026-05-08 15:28 | 30.39979 | 121.47544 | 6878 ft | 267 kts | 57° |
| 2026-05-08 15:28 | 30.40994 | 121.49346 | 6877 ft | 266 kts | 57° |
| 2026-05-08 15:29 | 30.42011 | 121.51154 | 6880 ft | 267 kts | 57° |
| 2026-05-08 15:29 | 30.43021 | 121.52952 | 6882 ft | 267 kts | 57° |
| 2026-05-08 15:29 | 30.44031 | 121.54751 | 6882 ft | 266 kts | 57° |
| 2026-05-08 15:29 | 30.45090 | 121.56517 | 6875 ft | 267 kts | 48° |
| 2026-05-08 15:30 | 30.46462 | 121.57933 | 6877 ft | 267 kts | 38° |
| 2026-05-08 15:30 | 30.47965 | 121.59251 | 6872 ft | 268 kts | 38° |
| 2026-05-08 15:30 | 30.49413 | 121.60576 | 6875 ft | 268 kts | 39° |
| 2026-05-08 15:30 | 30.50868 | 121.61934 | 6875 ft | 268 kts | 39° |
| 2026-05-08 15:31 | 30.52321 | 121.63293 | 6876 ft | 268 kts | 39° |
| 2026-05-08 15:31 | 30.53777 | 121.64651 | 6877 ft | 267 kts | 39° |
| 2026-05-08 15:31 | 30.55227 | 121.66009 | 6876 ft | 267 kts | 40° |
| 2026-05-08 15:31 | 30.56658 | 121.67355 | 6870 ft | 257 kts | 40° |
| 2026-05-08 15:32 | 30.58005 | 121.68618 | 6873 ft | 241 kts | 40° |
| 2026-05-08 15:32 | 30.59273 | 121.69804 | 6710 ft | 233 kts | 40° |
| 2026-05-08 15:32 | 30.60525 | 121.70976 | 6452 ft | 230 kts | 40° |
| 2026-05-08 15:32 | 30.61761 | 121.72129 | 6201 ft | 226 kts | 40° |
| 2026-05-08 15:33 | 30.62989 | 121.73275 | 5953 ft | 223 kts | 40° |
| 2026-05-08 15:33 | 30.64201 | 121.74405 | 5701 ft | 221 kts | 40° |
| 2026-05-08 15:33 | 30.65382 | 121.75508 | 5456 ft | 220 kts | 40° |
| 2026-05-08 15:33 | 30.66578 | 121.76623 | 5207 ft | 219 kts | 41° |
| 2026-05-08 15:34 | 30.67777 | 121.77743 | 4955 ft | 218 kts | 41° |
| 2026-05-08 15:34 | 30.68951 | 121.78841 | 4707 ft | 217 kts | 41° |
| 2026-05-08 15:34 | 30.70120 | 121.79933 | 4542 ft | 216 kts | 41° |
| 2026-05-08 15:34 | 30.71300 | 121.81036 | 4389 ft | 215 kts | 41° |
| 2026-05-08 15:35 | 30.72418 | 121.82149 | 4234 ft | 213 kts | 50° |
| 2026-05-08 15:35 | 30.73202 | 121.83580 | 4080 ft | 211 kts | 69° |
| 2026-05-08 15:35 | 30.73681 | 121.85190 | 3937 ft | 210 kts | 72° |
| 2026-05-08 15:35 | 30.74118 | 121.86807 | 3785 ft | 209 kts | 72° |
| 2026-05-08 15:36 | 30.74558 | 121.88424 | 3638 ft | 209 kts | 72° |
| 2026-05-08 15:36 | 30.74853 | 121.89496 | 3537 ft | 209 kts | 72° |
| 2026-05-08 15:36 | 30.75531 | 121.91588 | 3325 ft | 208 kts | 56° |
| 2026-05-08 15:36 | 30.76701 | 121.92558 | 3165 ft | 212 kts | 17° |
| 2026-05-08 15:37 | 30.78173 | 121.92506 | 3027 ft | 220 kts | 346° |
| 2026-05-08 15:37 | 30.79635 | 121.91908 | 2988 ft | 223 kts | 345° |
| 2026-05-08 15:37 | 30.81117 | 121.91326 | 2981 ft | 224 kts | 345° |
| 2026-05-08 15:37 | 30.82599 | 121.90763 | 2978 ft | 223 kts | 346° |
| 2026-05-08 15:38 | 30.84074 | 121.90207 | 2976 ft | 222 kts | 346° |
| 2026-05-08 15:38 | 30.85545 | 121.89652 | 2977 ft | 222 kts | 346° |
| 2026-05-08 15:38 | 30.87026 | 121.89095 | 2980 ft | 222 kts | 346° |
| 2026-05-08 15:38 | 30.88499 | 121.88538 | 2981 ft | 222 kts | 346° |
| 2026-05-08 15:39 | 30.89963 | 121.87984 | 2971 ft | 216 kts | 346° |
| 2026-05-08 15:39 | 30.91341 | 121.87457 | 2966 ft | 203 kts | 346° |
| 2026-05-08 15:39 | 30.92685 | 121.86948 | 2972 ft | 203 kts | 346° |
| 2026-05-08 15:39 | 30.94029 | 121.86440 | 2971 ft | 204 kts | 346° |
| 2026-05-08 15:40 | 30.95385 | 121.85927 | 2970 ft | 203 kts | 346° |
| 2026-05-08 15:40 | 30.96648 | 121.85445 | 3146 ft | 182 kts | 346° |
| 2026-05-08 15:40 | 30.97817 | 121.84999 | 2992 ft | 168 kts | 347° |
| 2026-05-08 15:40 | 30.98895 | 121.84590 | 2795 ft | 156 kts | 347° |
| 2026-05-08 15:41 | 30.99898 | 121.84211 | 2591 ft | 150 kts | 348° |
| 2026-05-08 15:41 | 31.00890 | 121.83839 | 2398 ft | 149 kts | 347° |
| 2026-05-08 15:41 | 31.01875 | 121.83469 | 2201 ft | 148 kts | 347° |
| 2026-05-08 15:41 | 31.02856 | 121.83099 | 2004 ft | 148 kts | 347° |
| 2026-05-08 15:42 | 31.03828 | 121.82732 | 1811 ft | 147 kts | 347° |
| 2026-05-08 15:42 | 31.04810 | 121.82361 | 1612 ft | 146 kts | 347° |
| 2026-05-08 15:42 | 31.05775 | 121.81996 | 1421 ft | 146 kts | 346° |
| 2026-05-08 15:42 | 31.06736 | 121.81634 | 1227 ft | 146 kts | 346° |
| 2026-05-08 15:43 | 31.07700 | 121.81270 | 1035 ft | 145 kts | 345° |
| 2026-05-08 15:43 | 31.08671 | 121.80904 | 840 ft | 145 kts | 344° |
| 2026-05-08 15:43 | 31.09626 | 121.80538 | 682 ft | 142 kts | 343° |
| 2026-05-08 15:43 | 31.10608 | 121.80186 | 605 ft | 151 kts | 344° |
| 2026-05-08 15:44 | 31.11601 | 121.79813 | 289 ft | 143 kts | 341° |
| 2026-05-08 15:44 | 31.12509 | 121.79460 | 69 ft | 130 kts | 342° |
| 2026-05-08 15:44 | 31.13300 | 121.79163 | 22 ft | 103 kts | 343° |
| 2026-05-08 15:44 | 31.13867 | 121.78949 | 22 ft | 76 kts | 342° |
| 2026-05-08 15:45 | 31.14203 | 121.78882 | 22 ft | 30 kts | 5° |
| 2026-05-08 15:45 | 31.14405 | 121.78918 | 22 ft | 28 kts | 8° |
| 2026-05-08 15:45 | 31.14518 | 121.78915 | 22 ft | 14 kts | 351° |
| 2026-05-08 15:45 | 31.14616 | 121.78877 | 22 ft | 15 kts | 338° |
| 2026-05-08 15:46 | 31.14711 | 121.78835 | 22 ft | 11 kts | 339° |
| 2026-05-08 15:46 | 31.14788 | 121.78802 | 22 ft | 12 kts | 341° |
| 2026-05-08 15:46 | 31.14873 | 121.78772 | 22 ft | 13 kts | 344° |
| 2026-05-08 15:46 | 31.14965 | 121.78741 | 22 ft | 14 kts | 343° |
| 2026-05-08 15:47 | 31.15064 | 121.78707 | 22 ft | 15 kts | 343° |
| 2026-05-08 15:47 | 31.15167 | 121.78670 | 22 ft | 15 kts | 342° |
| 2026-05-08 15:47 | 31.15273 | 121.78629 | 22 ft | 16 kts | 340° |
| 2026-05-08 15:47 | 31.15382 | 121.78584 | 22 ft | 16 kts | 341° |
| 2026-05-08 15:48 | 31.15539 | 121.78590 | 22 ft | 10 kts | 77° |
| 2026-05-08 15:48 | 31.15558 | 121.78677 | 22 ft | 11 kts | 72° |
| 2026-05-08 15:48 | 31.15585 | 121.78774 | 22 ft | 13 kts | 74° |
| 2026-05-08 15:49 | 31.15601 | 121.78881 | 22 ft | 13 kts | 84° |
| 2026-05-08 15:49 | 31.15611 | 121.78997 | 22 ft | 14 kts | 83° |
| 2026-05-08 15:49 | 31.15640 | 121.79113 | 22 ft | 15 kts | 72° |
| 2026-05-08 15:49 | 31.15672 | 121.79233 | 22 ft | 15 kts | 72° |
| 2026-05-08 15:50 | 31.15708 | 121.79359 | 22 ft | 16 kts | 71° |
| 2026-05-08 15:50 | 31.15745 | 121.79488 | 21 ft | 17 kts | 72° |
| 2026-05-08 15:50 | 31.15778 | 121.79608 | 21 ft | 7 kts | 77° |
| 2026-05-08 15:50 | 31.15760 | 121.79664 | 22 ft | 7 kts | 152° |
| 2026-05-08 15:51 | 31.15722 | 121.79663 | 21 ft | 4 kts | 217° |
| 2026-05-08 15:51 | 31.15716 | 121.79654 | 21 ft | 0 kts | 242° |
| 2026-05-08 15:51 | 31.15701 | 121.79605 | 21 ft | 0 kts | 245° |
| 2026-05-08 15:51 | 31.15701 | 121.79615 | 22 ft | 0 kts | 245° |
| 2026-05-08 15:52 | 31.15699 | 121.79607 | 21 ft | 1 kts | 256° |
| 2026-05-08 15:52 | 31.15698 | 121.79604 | 22 ft | 0 kts | 253° |